Monroe, MI

12:20 PM EST on December 28, 2014 (GMT -0500)
Raisin Ridge | Change Station
CLOSE
Current Station
Personal Weather Station
Location: Monroe, MI
Elevation: 614 ft
Nearby Weather Stations

Elev 614 ft 41.93 °N, 83.47 °W | Updated 8 minutes ago

Scattered Clouds
Scattered Clouds
37.8 °F
Feels Like 38 °F
N
0.0
Wind Variable Wind from WNW

Today
High -- | Low -- °F
--% Chance of Precip.
Yesterday
High -- | Low -- °F
Precip. -- in
8:00 AM 5:10 PM
Waxing Crescent, 49% visible
Pressure 30.08 in
Visibility 10.0 miles
Clouds Scattered Clouds 2400 ft
Windchill 38 °F
Dew Point 32 °F
Humidity 79%
Rainfall 0.00 in
Snow Depth Not available.
UV 2 out of 12
Pollen .10 out of 12
Air Quality Not available.
Flu Activity Not available.
METAR KTTF 281715Z AUTO 29005KT 10SM SCT024 03/M02 A3008 RMK AO2

More Conditions Fewer Conditions

Pressure 30.08 in
Visibility 10.0 miles
Clouds Scattered Clouds 2400 ft
Windchill 38 °F
Dew Point 32 °F
Humidity 79%
Rainfall 0.00 in
Snow Depth Not available.
UV 2 out of 12
Pollen .10 out of 12
Air Quality Not available.
Flu Activity Not available.
METAR KTTF 281715Z AUTO 29005KT 10SM SCT024 03/M02 A3008 RMK AO2

More Conditions Fewer Conditions

10-Day Weather Forecast

Almanac

Astronomy

Dec. 28, 2014 Rise Set
Actual Time
Civil Twilight
Nautical Twilight
Astronomical Twilight
Moon
Length of Visible Light
Length of Day
Tomorrow will be .
, % of the Moon is Illuminated

Today's Extremes

State Highs State Lows

Community

WunderPhotos

Upload Photos

1,781,360 photos uploaded!

WunderBlogs® & News

Nearby

Air Quality

  Air Quality AQ Index Pollutant
Not available.

Snow Depth

Station Depth Elevation

Earthquake Activity

City Distance Mag. Time & Date
Minimum magnitude displayed is 2.5.

Coastal Water Temperatures

Place Temperature

Nearby Weather Stations